Bookmark and Share
Track history (hours):
 

San Gennaro

Last reported at 2014-Apr-24 15:25 UTC. Time now 2014-Apr-25 06:27 UTC.
Position N 40°50' E 014°17'.

Length 27 m; draft 5.2 m.

Type: Tug. MMSI: 247295700.

NotesDate/timePositionNaut miles runAvg speedWind from/ knotsBaromVisibWave heightAir tempDewpointWater temp
2014-Apr-24 15:25N 40°50' E 014°17'1 0.0
2014-Apr-23 16:11N 40°50' E 014°18'1 0.9
2014-Apr-23 15:24N 40°50' E 014°17'0 0.3
2014-Apr-23 14:10N 40°50' E 014°17'1 0.1
2014-Apr-23 07:30N 40°51' E 014°16'2 1.7
2014-Apr-23 06:33N 40°50' E 014°18'1 0.1
2014-Apr-22 19:04N 40°50' E 014°16'1 0.2
2014-Apr-22 13:33N 40°50' E 014°17'9 8.6
2014-Apr-22 12:33N 40°44' E 014°26'1 1.2
2014-Apr-22 11:33N 40°45' E 014°24'8 0.6
2014-Apr-21 23:17N 40°50' E 014°17'1 0.7
2014-Apr-21 22:27N 40°50' E 014°17'0 0.0
2014-Apr-21 09:33N 40°50' E 014°17'9 9.2
2014-Apr-21 08:33N 40°44' E 014°26'6 5.2
2014-Apr-21 07:24N 40°48' E 014°20'3 3.1
2014-Apr-21 06:33N 40°50' E 014°18'0 0.1
2014-Apr-21 03:34N 40°50' E 014°18'1 0.1
2014-Apr-20 12:12N 40°51' E 014°16'1 1.6
2014-Apr-20 11:31N 40°50' E 014°17'1 0.0
2014-Apr-19 13:04N 40°51' E 014°16'0 0.2
2014-Apr-19 10:27N 40°50' E 014°15'1 0.4
2014-Apr-19 09:06N 40°51' E 014°16'5 8.5
2014-Apr-19 08:33N 40°47' E 014°20'6 5.4
2014-Apr-19 07:30N 40°45' E 014°27'7 6.8
2014-Apr-19 06:32N 40°48' E 014°19'4 0.5
2014-Apr-18 23:07N 40°51' E 014°16'1 2.7
2014-Apr-18 22:33N 40°50' E 014°18'1 0.1
2014-Apr-18 12:30N 40°51' E 014°16'1 1.4
2014-Apr-18 11:30N 40°50' E 014°18'1 1.1
2014-Apr-18 10:17N 40°51' E 014°16'0 0.0
2014-Apr-18 09:28N 40°51' E 014°16'1 0.1
2014-Apr-17 21:22N 40°50' E 014°17'0 0.3
2014-Apr-17 20:33N 40°50' E 014°18'1 1.0
2014-Apr-17 19:06N 40°51' E 014°16'1 0.2
2014-Apr-17 11:33N 40°50' E 014°18'1 0.2
2014-Apr-17 06:33N 40°50' E 014°17'1 0.1
2014-Apr-16 16:28N 40°51' E 014°16'1 0.1
2014-Apr-15 23:04N 40°50' E 014°17'0 0.4
2014-Apr-15 22:05N 40°50' E 014°17'0 0.5
2014-Apr-15 21:27N 40°50' E 014°17'1 1.0
2014-Apr-15 20:26N 40°51' E 014°16'0 0.0
2014-Apr-15 11:30N 40°51' E 014°16'0 0.0
2014-Apr-15 07:30N 40°51' E 014°16'0 0.3
2014-Apr-15 06:33N 40°50' E 014°16'1 0.3
2014-Apr-15 02:34N 40°50' E 014°17'  

Dump ship's entire track history

sailing weather and tide predictions

San Gennaro — IIOT2 — position and weather